createdAt,value
2019-02-15T00:00:43.161Z,1008.74
2019-02-15T00:01:43.295Z,1008.73
2019-02-15T00:02:43.423Z,1008.75
2019-02-15T00:03:43.547Z,1008.74
2019-02-15T00:04:43.676Z,1008.76
2019-02-15T00:05:43.797Z,1008.76
2019-02-15T00:06:43.926Z,1008.73
2019-02-15T00:07:44.050Z,1008.72
2019-02-15T00:08:44.178Z,1008.74
2019-02-15T00:09:44.305Z,1008.68
2019-02-15T00:10:44.432Z,1008.72
2019-02-15T00:11:44.550Z,1008.70
2019-02-15T00:12:44.673Z,1008.66
2019-02-15T00:13:44.807Z,1008.68
2019-02-15T00:14:44.936Z,1008.68
2019-02-15T00:15:45.065Z,1008.67
2019-02-15T00:16:45.193Z,1008.67
2019-02-15T00:17:45.337Z,1008.68
2019-02-15T00:18:45.451Z,1008.67
2019-02-15T00:19:45.575Z,1008.65
2019-02-15T00:20:45.717Z,1008.63
2019-02-15T00:21:45.833Z,1008.66
2019-02-15T00:22:45.965Z,1008.67
2019-02-15T00:23:46.085Z,1008.62
2019-02-15T00:24:46.213Z,1008.62
2019-02-15T00:25:46.336Z,1008.59
2019-02-15T00:26:46.466Z,1008.65
2019-02-15T00:27:46.599Z,1008.64
2019-02-15T00:28:46.724Z,1008.65
2019-02-15T00:29:46.841Z,1008.62
2019-02-15T00:30:46.980Z,1008.66
2019-02-15T00:31:47.111Z,1008.71
2019-02-15T00:32:47.224Z,1008.65
2019-02-15T00:33:47.350Z,1008.67
2019-02-15T00:34:47.474Z,1008.63
2019-02-15T00:35:47.594Z,1008.59
2019-02-15T00:36:47.723Z,1008.65
2019-02-15T00:37:47.853Z,1008.62
2019-02-15T00:38:47.975Z,1008.69
2019-02-15T00:39:48.104Z,1008.68
2019-02-15T00:40:48.225Z,1008.64
2019-02-15T00:41:48.348Z,1008.68
2019-02-15T00:42:48.471Z,1008.63
2019-02-15T00:43:48.604Z,1008.66
2019-02-15T00:44:48.730Z,1008.63
2019-02-15T00:45:48.859Z,1008.62
2019-02-15T00:46:48.970Z,1008.65
2019-02-15T00:47:49.097Z,1008.65
2019-02-15T00:48:49.220Z,1008.65
2019-02-15T00:49:49.344Z,1008.66
2019-02-15T00:50:49.467Z,1008.63
2019-02-15T00:51:49.598Z,1008.61
2019-02-15T00:52:49.725Z,1008.61
2019-02-15T00:53:49.859Z,1008.62
2019-02-15T00:54:49.975Z,1008.60
2019-02-15T00:55:50.104Z,1008.61
2019-02-15T00:56:50.224Z,1008.58
2019-02-15T00:57:50.354Z,1008.57
2019-02-15T00:58:50.477Z,1008.57
2019-02-15T00:59:50.595Z,1008.57
2019-02-15T01:00:50.728Z,1008.58
2019-02-15T01:01:50.846Z,1008.53
2019-02-15T01:02:50.976Z,1008.56
2019-02-15T01:03:51.124Z,1008.55
2019-02-15T01:04:51.245Z,1008.58
2019-02-15T01:05:51.361Z,1008.54
2019-02-15T01:06:51.487Z,1008.55
2019-02-15T01:07:51.609Z,1008.56
2019-02-15T01:08:51.736Z,1008.57
2019-02-15T01:09:51.856Z,1008.51
2019-02-15T01:10:51.972Z,1008.54
2019-02-15T01:11:52.103Z,1008.55
2019-02-15T01:12:52.225Z,1008.54
2019-02-15T01:13:52.340Z,1008.56
2019-02-15T01:14:52.465Z,1008.56
2019-02-15T01:15:52.591Z,1008.54
2019-02-15T01:16:52.725Z,1008.48
2019-02-15T01:17:52.833Z,1008.52
2019-02-15T01:18:52.961Z,1008.49
2019-02-15T01:19:53.092Z,1008.48
2019-02-15T01:20:53.217Z,1008.47
2019-02-15T01:21:53.357Z,1008.51
2019-02-15T01:22:53.478Z,1008.48
2019-02-15T01:23:53.604Z,1008.50
2019-02-15T01:24:53.728Z,1008.51
2019-02-15T01:25:53.853Z,1008.47
2019-02-15T01:26:53.977Z,1008.47
2019-02-15T01:27:54.087Z,1008.46
2019-02-15T01:28:54.217Z,1008.49
2019-02-15T01:29:54.341Z,1008.49
2019-02-15T01:30:54.462Z,1008.48
2019-02-15T01:31:54.587Z,1008.48
2019-02-15T01:32:54.711Z,1008.50
2019-02-15T01:33:54.841Z,1008.51
2019-02-15T01:34:54.966Z,1008.47
2019-02-15T01:35:55.094Z,1008.45
2019-02-15T01:36:55.219Z,1008.42
2019-02-15T01:37:55.338Z,1008.40
2019-02-15T01:38:55.467Z,1008.35
2019-02-15T01:39:55.590Z,1008.36
2019-02-15T01:40:55.725Z,1008.34
2019-02-15T01:41:55.853Z,1008.41
2019-02-15T01:42:55.978Z,1008.35
2019-02-15T01:43:56.097Z,1008.38
2019-02-15T01:44:56.224Z,1008.39
2019-02-15T01:45:56.357Z,1008.40
2019-02-15T01:46:56.477Z,1008.44
2019-02-15T01:47:56.596Z,1008.40
2019-02-15T01:48:56.723Z,1008.39
2019-02-15T01:49:56.848Z,1008.39
2019-02-15T01:50:56.980Z,1008.40
2019-02-15T01:51:57.103Z,1008.37
2019-02-15T01:52:57.230Z,1008.43
2019-02-15T01:53:57.355Z,1008.37
2019-02-15T01:54:57.478Z,1008.42
2019-02-15T01:55:57.606Z,1008.44
2019-02-15T01:56:57.735Z,1008.44
2019-02-15T01:57:57.854Z,1008.42
2019-02-15T01:58:57.979Z,1008.43
2019-02-15T01:59:58.106Z,1008.43
2019-02-15T02:00:58.223Z,1008.44
2019-02-15T02:01:58.359Z,1008.39
2019-02-15T02:02:58.477Z,1008.40
2019-02-15T02:03:58.607Z,1008.38
2019-02-15T02:04:58.731Z,1008.38
2019-02-15T02:05:58.854Z,1008.35
2019-02-15T02:06:58.974Z,1008.40
2019-02-15T02:07:59.098Z,1008.37
2019-02-15T02:08:59.227Z,1008.31
2019-02-15T02:09:59.348Z,1008.34
2019-02-15T02:10:59.464Z,1008.27
2019-02-15T02:11:59.594Z,1008.29
2019-02-15T02:12:59.721Z,1008.25
2019-02-15T02:13:59.847Z,1008.26
2019-02-15T02:14:59.974Z,1008.25
2019-02-15T02:16:00.097Z,1008.28
2019-02-15T02:17:00.221Z,1008.25
2019-02-15T02:18:00.346Z,1008.24
2019-02-15T02:19:00.471Z,1008.22
2019-02-15T02:20:00.598Z,1008.23
2019-02-15T02:21:00.728Z,1008.19
2019-02-15T02:22:00.853Z,1008.16
2019-02-15T02:23:01.864Z,1008.21
2019-02-15T02:24:01.091Z,1008.19
2019-02-15T02:25:01.215Z,1008.15
2019-02-15T02:26:01.343Z,1008.11
2019-02-15T02:27:01.470Z,1008.12
2019-02-15T02:28:01.596Z,1008.14
2019-02-15T02:29:01.717Z,1008.12
2019-02-15T02:30:01.849Z,1008.12
2019-02-15T02:31:01.963Z,1008.17
2019-02-15T02:32:02.097Z,1008.14
2019-02-15T02:33:02.215Z,1008.17
2019-02-15T02:34:02.345Z,1008.15
2019-02-15T02:35:02.467Z,1008.11
2019-02-15T02:36:02.589Z,1008.11
2019-02-15T02:37:02.712Z,1008.12
2019-02-15T02:38:02.838Z,1008.13
2019-02-15T02:39:02.968Z,1008.15
2019-02-15T02:40:03.090Z,1008.12
2019-02-15T02:41:03.222Z,1008.12
2019-02-15T02:42:03.337Z,1008.17
2019-02-15T02:43:03.495Z,1008.12
2019-02-15T02:44:03.584Z,1008.12
2019-02-15T02:45:03.704Z,1008.10
2019-02-15T02:46:03.832Z,1008.15
2019-02-15T02:47:03.955Z,1008.18
2019-02-15T02:48:04.092Z,1008.13
2019-02-15T02:49:04.220Z,1008.18
2019-02-15T02:50:04.343Z,1008.18
2019-02-15T02:51:04.472Z,1008.23
2019-02-15T02:52:04.607Z,1008.17
2019-02-15T02:53:04.719Z,1008.20
2019-02-15T02:54:04.847Z,1008.16
2019-02-15T02:55:04.969Z,1008.12
2019-02-15T02:56:05.107Z,1008.12
2019-02-15T02:57:05.222Z,1008.13
2019-02-15T02:58:05.347Z,1008.12
2019-02-15T02:59:05.474Z,1008.08
2019-02-15T03:00:05.598Z,1008.11
2019-02-15T03:01:05.733Z,1008.10
2019-02-15T03:02:05.893Z,1008.12
2019-02-15T03:03:05.990Z,1008.11
2019-02-15T03:04:06.136Z,1008.10
2019-02-15T03:05:06.240Z,1008.10
2019-02-15T03:06:06.364Z,1008.13
2019-02-15T03:07:06.491Z,1008.09
2019-02-15T03:08:06.614Z,1008.14
2019-02-15T03:09:06.741Z,1008.13
2019-02-15T03:10:06.869Z,1008.12
2019-02-15T03:11:06.992Z,1008.12
2019-02-15T03:12:07.118Z,1008.13
2019-02-15T03:13:07.293Z,1008.08
2019-02-15T03:14:11.352Z,1008.11
2019-02-15T03:15:07.493Z,1008.13
2019-02-15T03:16:07.625Z,1008.11
2019-02-15T03:17:07.752Z,1008.12
2019-02-15T03:18:07.881Z,1008.12
2019-02-15T03:19:08.003Z,1008.14
2019-02-15T03:20:08.139Z,1008.12
2019-02-15T03:21:08.268Z,1008.11
2019-02-15T03:22:08.385Z,1008.03
2019-02-15T03:23:08.509Z,1008.07
2019-02-15T03:24:08.634Z,1008.08
2019-02-15T03:25:08.759Z,1008.01
2019-02-15T03:26:08.887Z,1008.06
2019-02-15T03:27:09.019Z,1008.05
2019-02-15T03:28:09.134Z,1008.05
2019-02-15T03:29:09.248Z,1008.05
2019-02-15T03:30:09.403Z,1008.09
2019-02-15T03:31:09.498Z,1008.08
2019-02-15T03:32:09.739Z,1008.05
2019-02-15T03:33:09.759Z,1008.10
2019-02-15T03:34:09.869Z,1008.05
2019-02-15T03:35:10.002Z,1008.04
2019-02-15T03:36:10.120Z,1008.05
2019-02-15T03:37:10.251Z,1008.10
2019-02-15T03:38:10.373Z,1008.06
2019-02-15T03:39:10.492Z,1008.03
2019-02-15T03:40:10.620Z,1008.05
2019-02-15T03:41:10.744Z,1008.02
2019-02-15T03:42:10.871Z,1008.07
2019-02-15T03:43:11.007Z,1008.09
2019-02-15T03:44:21.304Z,1008.07
2019-02-15T03:45:11.241Z,1008.07
2019-02-15T03:46:11.357Z,1008.06
2019-02-15T03:47:11.483Z,1008.06
2019-02-15T03:48:11.610Z,1008.04
2019-02-15T03:49:11.741Z,1008.09
2019-02-15T03:50:11.862Z,1008.08
2019-02-15T03:51:11.987Z,1008.07
2019-02-15T03:52:12.112Z,1008.11
2019-02-15T03:53:12.236Z,1008.12
2019-02-15T03:54:12.351Z,1008.11
2019-02-15T03:55:12.487Z,1008.09
2019-02-15T03:56:12.605Z,1008.06
2019-02-15T03:57:12.729Z,1008.10
2019-02-15T03:58:12.871Z,1008.12
2019-02-15T03:59:13.004Z,1008.14
2019-02-15T04:00:13.137Z,1008.13
2019-02-15T04:01:13.256Z,1008.14
2019-02-15T04:02:13.379Z,1008.13
2019-02-15T04:03:13.515Z,1008.15
2019-02-15T04:04:13.628Z,1008.14
2019-02-15T04:05:13.770Z,1008.15
2019-02-15T04:06:13.905Z,1008.11
2019-02-15T04:07:14.014Z,1008.14
2019-02-15T04:08:14.141Z,1008.15
2019-02-15T04:09:14.265Z,1008.11
2019-02-15T04:10:14.389Z,1008.08
2019-02-15T04:11:14.515Z,1008.06
2019-02-15T04:12:14.641Z,1008.09
2019-02-15T04:13:14.764Z,1008.08
2019-02-15T04:14:14.888Z,1008.10
2019-02-15T04:15:15.012Z,1008.10
2019-02-15T04:16:15.141Z,1008.10
2019-02-15T04:17:15.263Z,1008.12
2019-02-15T04:18:15.383Z,1008.12
2019-02-15T04:19:15.507Z,1008.09
2019-02-15T04:20:15.635Z,1008.07
2019-02-15T04:21:15.765Z,1008.07
2019-02-15T04:22:15.881Z,1008.08
2019-02-15T04:23:16.009Z,1008.07
2019-02-15T04:24:16.133Z,1008.08
2019-02-15T04:25:16.265Z,1008.11
2019-02-15T04:26:16.389Z,1008.07
2019-02-15T04:27:16.512Z,1008.08
2019-02-15T04:28:16.637Z,1008.10
2019-02-15T04:29:16.760Z,1008.05
2019-02-15T04:30:16.881Z,1008.03
2019-02-15T04:31:17.006Z,1008.07
2019-02-15T04:32:17.139Z,1008.04
2019-02-15T04:33:17.266Z,1008.03
2019-02-15T04:34:17.391Z,1008.05
2019-02-15T04:35:17.510Z,1008.02
2019-02-15T04:36:17.627Z,1008.02
2019-02-15T04:37:17.751Z,1008.03
2019-02-15T04:38:17.878Z,1008.02
2019-02-15T04:39:18.005Z,1008.07
2019-02-15T04:40:18.125Z,1008.05
2019-02-15T04:41:18.246Z,1008.06
2019-02-15T04:42:18.371Z,1008.03
2019-02-15T04:43:18.497Z,1008.05
2019-02-15T04:44:18.621Z,1008.06
2019-02-15T04:45:18.746Z,1008.09
2019-02-15T04:46:18.954Z,1008.05
2019-02-15T04:47:19.005Z,1008.05
2019-02-15T04:48:19.128Z,1008.08
2019-02-15T04:49:19.262Z,1008.09
2019-02-15T04:50:19.381Z,1008.08
2019-02-15T04:51:19.506Z,1008.06
2019-02-15T04:52:19.631Z,1008.06
2019-02-15T04:53:19.757Z,1008.07
2019-02-15T04:54:19.879Z,1008.11
2019-02-15T04:55:20.002Z,1008.05
2019-02-15T04:56:20.138Z,1008.11
2019-02-15T04:57:20.255Z,1008.12
2019-02-15T04:58:20.406Z,1008.09
2019-02-15T04:59:20.502Z,1008.07
2019-02-15T05:00:20.635Z,1008.10
2019-02-15T05:01:20.752Z,1008.11
2019-02-15T05:02:20.874Z,1008.14
2019-02-15T05:03:21.000Z,1008.11
2019-02-15T05:04:21.131Z,1008.11
2019-02-15T05:05:21.272Z,1008.15
2019-02-15T05:06:21.378Z,1008.19
2019-02-15T05:07:21.506Z,1008.13
2019-02-15T05:08:21.637Z,1008.18
2019-02-15T05:09:23.803Z,1008.16
2019-02-15T05:10:21.883Z,1008.16
2019-02-15T05:11:21.997Z,1008.14
2019-02-15T05:12:22.129Z,1008.13
2019-02-15T05:13:22.266Z,1008.11
2019-02-15T05:14:22.378Z,1008.11
2019-02-15T05:15:22.510Z,1008.12
2019-02-15T05:16:22.635Z,1008.08
2019-02-15T05:17:22.762Z,1008.16
2019-02-15T05:18:22.884Z,1008.09
2019-02-15T05:19:23.010Z,1008.10
2019-02-15T05:20:23.141Z,1008.06
2019-02-15T05:21:23.248Z,1008.06
2019-02-15T05:22:23.374Z,1008.11
2019-02-15T05:23:23.492Z,1008.10
2019-02-15T05:24:23.625Z,1008.09
2019-02-15T05:25:23.748Z,1008.08
2019-02-15T05:26:23.894Z,1008.12
2019-02-15T05:27:24.007Z,1008.11
2019-02-15T05:28:24.129Z,1008.13
2019-02-15T05:29:24.239Z,1008.07
2019-02-15T05:30:24.366Z,1008.16
2019-02-15T05:31:24.488Z,1008.10
2019-02-15T05:32:24.613Z,1008.10
2019-02-15T05:33:24.741Z,1008.08
2019-02-15T05:34:24.876Z,1008.08
2019-02-15T05:35:24.991Z,1008.07
2019-02-15T05:36:25.110Z,1008.11
2019-02-15T05:37:25.237Z,1008.11
2019-02-15T05:38:25.357Z,1008.04
2019-02-15T05:39:25.479Z,1008.15
2019-02-15T05:40:25.605Z,1008.06
2019-02-15T05:41:25.726Z,1008.09
2019-02-15T05:42:25.854Z,1008.07
2019-02-15T05:43:25.993Z,1008.10
2019-02-15T05:44:26.100Z,1008.08
2019-02-15T05:45:26.230Z,1008.12
2019-02-15T05:46:26.356Z,1008.05
2019-02-15T05:47:26.491Z,1008.09
2019-02-15T05:48:26.595Z,1008.06
2019-02-15T05:49:26.730Z,1008.04
2019-02-15T05:50:26.844Z,1008.03
2019-02-15T05:51:26.970Z,1008.05
2019-02-15T05:52:27.087Z,1008.06
2019-02-15T05:53:27.215Z,1008.06
2019-02-15T05:54:27.354Z,1008.11
2019-02-15T05:55:27.473Z,1008.01
2019-02-15T05:56:27.603Z,1008.08
2019-02-15T05:57:27.726Z,1008.05
2019-02-15T05:58:27.875Z,1008.11
2019-02-15T05:59:28.001Z,1008.09
2019-02-15T06:00:36.689Z,1008.11
2019-02-15T06:01:28.284Z,1008.15
2019-02-15T06:02:28.369Z,1008.14
2019-02-15T06:03:28.498Z,1008.15
2019-02-15T06:04:28.620Z,1008.18
2019-02-15T06:05:28.747Z,1008.11
2019-02-15T06:06:28.867Z,1008.14
2019-02-15T06:07:29.002Z,1008.12
2019-02-15T06:08:31.209Z,1008.10
2019-02-15T06:09:29.316Z,1008.11
2019-02-15T06:10:29.390Z,1008.11
2019-02-15T06:11:29.509Z,1008.10
2019-02-15T06:12:29.643Z,1008.14
2019-02-15T06:13:29.758Z,1008.10
2019-02-15T06:14:29.885Z,1008.08
2019-02-15T06:15:30.018Z,1008.09
2019-02-15T06:16:30.134Z,1008.08
2019-02-15T06:17:30.259Z,1008.09
2019-02-15T06:18:30.378Z,1008.03
2019-02-15T06:19:30.508Z,1008.04
2019-02-15T06:20:30.634Z,1008.03
2019-02-15T06:21:30.761Z,1008.10
2019-02-15T06:22:30.877Z,1008.07
2019-02-15T06:23:31.011Z,1008.06
2019-02-15T06:24:31.125Z,1008.07
2019-02-15T06:25:31.255Z,1008.09
2019-02-15T06:26:31.373Z,1008.12
2019-02-15T06:27:31.495Z,1008.14
2019-02-15T06:28:31.623Z,1008.13
2019-02-15T06:29:31.745Z,1008.18
2019-02-15T06:30:31.864Z,1008.18
2019-02-15T06:31:31.999Z,1008.17
2019-02-15T06:32:32.120Z,1008.20
2019-02-15T06:33:32.236Z,1008.19
2019-02-15T06:34:32.367Z,1008.20
2019-02-15T06:35:33.119Z,1008.24
2019-02-15T06:36:32.621Z,1008.26
2019-02-15T06:37:32.753Z,1008.27
2019-02-15T06:38:35.083Z,1008.25
2019-02-15T06:39:33.038Z,1008.22
2019-02-15T06:40:33.158Z,1008.24
2019-02-15T06:41:33.287Z,1008.23
2019-02-15T06:42:33.410Z,1008.18
2019-02-15T06:43:33.545Z,1008.22
2019-02-15T06:44:33.661Z,1008.16
2019-02-15T06:45:33.787Z,1008.19
2019-02-15T06:46:33.912Z,1008.20
2019-02-15T06:47:34.034Z,1008.19
2019-02-15T06:48:34.159Z,1008.22
2019-02-15T06:49:34.283Z,1008.24
2019-02-15T06:50:34.409Z,1008.21
2019-02-15T06:51:34.532Z,1008.27
2019-02-15T06:52:34.667Z,1008.24
2019-02-15T06:53:34.803Z,1008.28
2019-02-15T06:54:34.901Z,1008.29
2019-02-15T06:55:35.027Z,1008.28
2019-02-15T06:56:35.151Z,1008.31
2019-02-15T06:57:35.276Z,1008.31
2019-02-15T06:58:35.402Z,1008.31
2019-02-15T06:59:35.528Z,1008.32
2019-02-15T07:00:35.653Z,1008.35
2019-02-15T07:01:35.779Z,1008.36
2019-02-15T07:02:35.907Z,1008.39
2019-02-15T07:03:36.042Z,1008.40
2019-02-15T07:04:36.149Z,1008.40
2019-02-15T07:05:36.281Z,1008.41
2019-02-15T07:06:36.409Z,1008.44
2019-02-15T07:07:36.533Z,1008.47
2019-02-15T07:08:36.647Z,1008.44
2019-02-15T07:09:36.779Z,1008.43
2019-02-15T07:10:36.906Z,1008.42
2019-02-15T07:11:37.026Z,1008.41
2019-02-15T07:12:37.149Z,1008.45
2019-02-15T07:13:37.282Z,1008.43
2019-02-15T07:14:37.406Z,1008.43
2019-02-15T07:15:37.533Z,1008.45
2019-02-15T07:16:37.670Z,1008.43
2019-02-15T07:17:37.783Z,1008.41
2019-02-15T07:18:37.899Z,1008.41
2019-02-15T07:19:38.034Z,1008.42
2019-02-15T07:20:38.159Z,1008.44
2019-02-15T07:21:38.279Z,1008.46
2019-02-15T07:22:38.407Z,1008.50
2019-02-15T07:23:38.528Z,1008.46
2019-02-15T07:24:38.646Z,1008.43
2019-02-15T07:25:38.774Z,1008.48
2019-02-15T07:26:38.901Z,1008.49
2019-02-15T07:27:39.019Z,1008.50
2019-02-15T07:28:39.158Z,1008.54
2019-02-15T07:29:39.265Z,1008.50
2019-02-15T07:30:39.390Z,1008.53
2019-02-15T07:31:39.501Z,1008.51
2019-02-15T07:32:39.631Z,1008.51
2019-02-15T07:33:39.745Z,1008.53
2019-02-15T07:34:39.872Z,1008.51
2019-02-15T07:35:40.021Z,1008.48
2019-02-15T07:36:40.139Z,1008.52
2019-02-15T07:37:40.258Z,1008.49
2019-02-15T07:38:40.386Z,1008.47
2019-02-15T07:39:40.512Z,1008.51
2019-02-15T07:40:40.631Z,1008.54
2019-02-15T07:41:40.756Z,1008.51
2019-02-15T07:42:40.873Z,1008.50
2019-02-15T07:43:40.998Z,1008.54
2019-02-15T07:44:41.131Z,1008.55
2019-02-15T07:45:43.135Z,1008.55
2019-02-15T07:46:41.386Z,1008.53
2019-02-15T07:47:41.500Z,1008.54
2019-02-15T07:48:41.629Z,1008.52
2019-02-15T07:49:41.741Z,1008.54
2019-02-15T07:50:41.870Z,1008.55
2019-02-15T07:51:41.990Z,1008.53
2019-02-15T07:52:42.113Z,1008.59
2019-02-15T07:53:42.237Z,1008.54
2019-02-15T07:54:42.363Z,1008.54
2019-02-15T07:55:42.488Z,1008.58
2019-02-15T07:56:42.619Z,1008.55
2019-02-15T07:57:42.751Z,1008.50
2019-02-15T07:58:42.879Z,1008.52
2019-02-15T07:59:42.998Z,1008.52
2019-02-15T08:00:43.132Z,1008.57
2019-02-15T08:01:43.255Z,1008.52
2019-02-15T08:02:43.379Z,1008.51
2019-02-15T08:03:43.507Z,1008.48
2019-02-15T08:04:43.625Z,1008.47
2019-02-15T08:05:43.746Z,1008.44
2019-02-15T08:06:43.886Z,1008.45
2019-02-15T08:07:44.001Z,1008.45
2019-02-15T08:08:44.126Z,1008.42
2019-02-15T08:09:44.247Z,1008.44
2019-02-15T08:10:44.363Z,1008.45
2019-02-15T08:11:44.489Z,1008.39
2019-02-15T08:12:44.618Z,1008.42
2019-02-15T08:13:44.744Z,1008.39
2019-02-15T08:14:44.875Z,1008.40
2019-02-15T08:15:51.580Z,1008.43
2019-02-15T08:16:45.115Z,1008.39
2019-02-15T08:17:45.239Z,1008.40
2019-02-15T08:18:45.361Z,1008.37
2019-02-15T08:19:45.499Z,1008.35
2019-02-15T08:20:45.617Z,1008.37
2019-02-15T08:21:45.750Z,1008.36
2019-02-15T08:22:45.871Z,1008.38
2019-02-15T08:23:45.993Z,1008.37
2019-02-15T08:24:46.124Z,1008.37
2019-02-15T08:25:46.246Z,1008.36
2019-02-15T08:26:46.370Z,1008.37
2019-02-15T08:27:46.492Z,1008.34
2019-02-15T08:28:46.614Z,1008.36
2019-02-15T08:29:46.742Z,1008.34
2019-02-15T08:30:46.869Z,1008.29
2019-02-15T08:31:46.993Z,1008.29
2019-02-15T08:32:47.116Z,1008.32
2019-02-15T08:33:47.253Z,1008.30
2019-02-15T08:34:47.375Z,1008.29
2019-02-15T08:35:47.498Z,1008.31
2019-02-15T08:36:47.622Z,1008.31
2019-02-15T08:37:47.744Z,1008.32
2019-02-15T08:38:48.066Z,1008.32
2019-02-15T08:39:48.010Z,1008.31
2019-02-15T08:40:48.198Z,1008.29
2019-02-15T08:42:00.568Z,1008.30
2019-02-15T08:42:48.382Z,1008.34
2019-02-15T08:43:48.510Z,1008.35
2019-02-15T08:44:48.633Z,1008.36
2019-02-15T08:45:48.756Z,1008.35
2019-02-15T08:46:48.889Z,1008.33
2019-02-15T08:47:49.006Z,1008.34
2019-02-15T08:48:49.139Z,1008.34
2019-02-15T08:49:49.266Z,1008.34
2019-02-15T08:50:49.384Z,1008.33
2019-02-15T08:51:49.534Z,1008.36
2019-02-15T08:52:49.658Z,1008.33
2019-02-15T08:53:50.447Z,1008.32
2019-02-15T08:54:49.905Z,1008.33
2019-02-15T08:55:50.033Z,1008.33
2019-02-15T08:56:50.152Z,1008.29
2019-02-15T08:57:50.277Z,1008.32
2019-02-15T08:58:50.407Z,1008.34
2019-02-15T08:59:50.536Z,1008.30
2019-02-15T09:00:50.657Z,1008.33
2019-02-15T09:01:50.789Z,1008.28
2019-02-15T09:02:50.907Z,1008.27
2019-02-15T09:03:51.038Z,1008.28
2019-02-15T09:04:51.158Z,1008.30
2019-02-15T09:05:51.291Z,1008.30
2019-02-15T09:06:51.409Z,1008.30
2019-02-15T09:07:51.540Z,1008.31
2019-02-15T09:08:51.659Z,1008.31
2019-02-15T09:09:51.791Z,1008.28
2019-02-15T09:10:51.917Z,1008.28
2019-02-15T09:11:52.049Z,1008.28
2019-02-15T09:12:52.220Z,1008.28
2019-02-15T09:13:52.317Z,1008.23
2019-02-15T09:14:52.430Z,1008.28
2019-02-15T09:15:52.560Z,1008.26
2019-02-15T09:16:52.699Z,1008.28
2019-02-15T09:17:52.822Z,1008.29
2019-02-15T09:18:52.939Z,1008.31
2019-02-15T09:19:53.064Z,1008.28
2019-02-15T09:20:53.187Z,1008.28
2019-02-15T09:21:53.314Z,1008.27
2019-02-15T09:22:53.431Z,1008.27
2019-02-15T09:23:53.564Z,1008.19
2019-02-15T09:24:53.691Z,1008.21
2019-02-15T09:25:53.827Z,1008.18
2019-02-15T09:26:53.946Z,1008.19
2019-02-15T09:27:54.079Z,1008.17
2019-02-15T09:28:54.214Z,1008.15
2019-02-15T09:29:54.334Z,1008.19
2019-02-15T09:30:54.463Z,1008.21
2019-02-15T09:31:54.585Z,1008.18
2019-02-15T09:32:54.715Z,1008.17
2019-02-15T09:33:54.844Z,1008.21
2019-02-15T09:34:54.964Z,1008.21
2019-02-15T09:35:55.093Z,1008.16
2019-02-15T09:36:55.228Z,1008.17
2019-02-15T09:37:55.341Z,1008.17
2019-02-15T09:38:55.471Z,1008.15
2019-02-15T09:39:55.588Z,1008.17
2019-02-15T09:40:55.716Z,1008.16
2019-02-15T09:41:55.842Z,1008.13
2019-02-15T09:42:55.971Z,1008.16
2019-02-15T09:43:56.094Z,1008.15
2019-02-15T09:44:56.231Z,1008.14
2019-02-15T09:45:56.349Z,1008.15
2019-02-15T09:46:56.485Z,1008.08
2019-02-15T09:47:56.606Z,1008.09
2019-02-15T09:48:56.738Z,1008.11
2019-02-15T09:49:56.864Z,1008.10
2019-02-15T09:50:56.996Z,1008.08
2019-02-15T09:51:57.120Z,1008.12
2019-02-15T09:52:57.254Z,1008.06
2019-02-15T09:53:57.372Z,1008.09
2019-02-15T09:54:57.519Z,1008.06
2019-02-15T09:55:57.638Z,1008.04
2019-02-15T09:56:57.766Z,1008.06
2019-02-15T09:57:57.898Z,1008.07
2019-02-15T09:58:58.024Z,1008.05
2019-02-15T09:59:58.134Z,1008.07
2019-02-15T10:00:58.283Z,1008.01
2019-02-15T10:01:58.420Z,1008.03
2019-02-15T10:02:58.542Z,1008.05
2019-02-15T10:03:58.666Z,1008.06
2019-02-15T10:04:58.809Z,1008.06
2019-02-15T10:05:58.935Z,1008.05
2019-02-15T10:06:59.071Z,1008.04
2019-02-15T10:07:59.199Z,1008.03
2019-02-15T10:08:59.332Z,1007.99
2019-02-15T10:09:59.458Z,1007.99
2019-02-15T10:10:59.582Z,1008.01
2019-02-15T10:11:59.719Z,1007.98
2019-02-15T10:12:59.839Z,1007.96
2019-02-15T10:13:59.971Z,1008.01
2019-02-15T10:15:00.119Z,1008.02
2019-02-15T10:16:00.231Z,1007.97
2019-02-15T10:17:00.354Z,1008.01
2019-02-15T10:18:00.493Z,1007.98
2019-02-15T10:19:00.608Z,1007.95
2019-02-15T10:20:00.736Z,1007.98
2019-02-15T10:21:00.865Z,1007.92
2019-02-15T10:22:00.998Z,1007.97
2019-02-15T10:23:01.133Z,1008.00
2019-02-15T10:24:01.254Z,1007.97
2019-02-15T10:25:01.408Z,1008.04
2019-02-15T10:26:01.537Z,1008.04
2019-02-15T10:27:01.650Z,1007.99
2019-02-15T10:28:01.784Z,1008.03
2019-02-15T10:29:01.911Z,1008.01
2019-02-15T10:30:02.676Z,1008.00
2019-02-15T10:31:02.165Z,1007.98
2019-02-15T10:32:02.295Z,1007.98
2019-02-15T10:33:02.417Z,1007.93
2019-02-15T10:34:02.555Z,1007.96
2019-02-15T10:35:02.690Z,1007.97
2019-02-15T10:36:02.829Z,1007.97
2019-02-15T10:37:02.957Z,1007.94
2019-02-15T10:38:03.087Z,1007.92
2019-02-15T10:39:03.220Z,1007.90
2019-02-15T10:40:03.342Z,1007.88
2019-02-15T10:41:03.479Z,1007.83
2019-02-15T10:42:03.607Z,1007.87
2019-02-15T10:43:03.729Z,1007.86
2019-02-15T10:44:03.874Z,1007.84
2019-02-15T10:45:03.992Z,1007.83
2019-02-15T10:46:04.127Z,1007.80
2019-02-15T10:47:04.264Z,1007.79
2019-02-15T10:48:04.396Z,1007.76
2019-02-15T10:49:04.519Z,1007.77
2019-02-15T10:50:05.223Z,1007.73
2019-02-15T10:51:04.780Z,1007.72
2019-02-15T10:52:04.913Z,1007.75
2019-02-15T10:53:05.038Z,1007.74
2019-02-15T10:54:05.175Z,1007.76
2019-02-15T10:55:05.314Z,1007.75
2019-02-15T10:56:05.443Z,1007.77
2019-02-15T10:57:05.583Z,1007.81
2019-02-15T10:58:05.716Z,1007.79
2019-02-15T10:59:05.848Z,1007.79
2019-02-15T11:00:05.991Z,1007.77
2019-02-15T11:01:06.124Z,1007.76
2019-02-15T11:02:06.261Z,1007.81
2019-02-15T11:03:06.402Z,1007.77
2019-02-15T11:04:06.537Z,1007.75
2019-02-15T11:05:06.678Z,1007.80
2019-02-15T11:06:06.833Z,1007.75
2019-02-15T11:07:06.967Z,1007.76
2019-02-15T11:08:07.103Z,1007.73
2019-02-15T11:09:07.244Z,1007.73
2019-02-15T11:10:07.369Z,1007.65
2019-02-15T11:11:07.506Z,1007.68
2019-02-15T11:12:07.655Z,1007.72
2019-02-15T11:13:07.783Z,1007.69
2019-02-15T11:14:07.910Z,1007.68
2019-02-15T11:15:08.046Z,1007.72
2019-02-15T11:16:08.186Z,1007.70
2019-02-15T11:17:08.323Z,1007.70
2019-02-15T11:18:08.456Z,1007.68
2019-02-15T11:19:08.591Z,1007.69
2019-02-15T11:20:08.735Z,1007.66
2019-02-15T11:21:08.865Z,1007.66
2019-02-15T11:22:09.016Z,1007.64
2019-02-15T11:23:09.146Z,1007.64
2019-02-15T11:24:09.284Z,1007.64
2019-02-15T11:25:09.416Z,1007.65
2019-02-15T11:26:09.572Z,1007.66
2019-02-15T11:27:09.707Z,1007.76
2019-02-15T11:28:09.838Z,1007.86
2019-02-15T11:29:09.988Z,1007.89
2019-02-15T11:30:10.118Z,1007.87
2019-02-15T11:31:10.254Z,1007.89
2019-02-15T11:32:10.384Z,1007.87
2019-02-15T11:33:10.524Z,1007.94
2019-02-15T11:34:10.665Z,1007.96
2019-02-15T11:35:10.809Z,1007.93
2019-02-15T11:36:10.942Z,1007.80
2019-02-15T11:37:11.079Z,1007.82
2019-02-15T11:38:11.232Z,1007.84
2019-02-15T11:39:11.366Z,1007.80
2019-02-15T11:40:11.498Z,1007.82
2019-02-15T11:41:11.645Z,1007.79
2019-02-15T11:42:11.773Z,1007.79
2019-02-15T11:43:11.916Z,1007.77
2019-02-15T11:44:12.058Z,1007.76
2019-02-15T11:45:12.204Z,1007.77
2019-02-15T11:46:12.349Z,1007.74
2019-02-15T11:47:12.489Z,1007.71
2019-02-15T11:48:12.642Z,1007.65
2019-02-15T11:49:12.786Z,1007.72
2019-02-15T11:50:12.931Z,1007.72
2019-02-15T11:51:13.062Z,1007.72
2019-02-15T11:52:13.207Z,1007.69
2019-02-15T11:53:13.358Z,1007.72
2019-02-15T11:54:23.144Z,1007.74
2019-02-15T11:55:13.638Z,1007.74
2019-02-15T11:56:13.780Z,1007.70
2019-02-15T11:57:13.926Z,1007.52
2019-02-15T11:58:14.073Z,1007.68
2019-02-15T11:59:14.215Z,1007.41
2019-02-15T12:00:14.771Z,1007.61
2019-02-15T12:01:14.514Z,1007.62
2019-02-15T12:02:14.642Z,1007.68
2019-02-15T12:03:14.786Z,1007.67
2019-02-15T12:04:14.936Z,1007.65
2019-02-15T12:05:15.076Z,1007.63
2019-02-15T12:06:15.221Z,1007.61
2019-02-15T12:07:15.380Z,1007.68